createdAt,value
2023-05-07T00:00:30.872Z,23.3
2023-05-07T00:05:53.174Z,23.3
2023-05-07T00:11:30.919Z,23.3
2023-05-07T00:17:08.032Z,23.3
2023-05-07T00:22:46.005Z,23.3
2023-05-07T00:28:22.530Z,23.3
2023-05-07T00:34:15.221Z,23.3
2023-05-07T00:40:07.659Z,23.3
2023-05-07T00:45:44.136Z,23.3
2023-05-07T00:51:36.975Z,23.3
2023-05-07T00:57:28.037Z,23.3
2023-05-07T01:03:23.029Z,23.3
2023-05-07T01:09:20.388Z,23.3
2023-05-07T01:14:57.178Z,23.3
2023-05-07T01:20:49.618Z,23.3
2023-05-07T01:26:41.765Z,23.3
2023-05-07T01:32:33.697Z,23.3
2023-05-07T01:38:26.046Z,23.3
2023-05-07T01:44:18.629Z,23.2
2023-05-07T01:50:10.809Z,23.2
2023-05-07T01:56:03.050Z,23.2
2023-05-07T02:01:55.200Z,23.2
2023-05-07T02:07:47.711Z,23.2
2023-05-07T02:13:40.414Z,23.2
2023-05-07T02:19:32.422Z,23.2
2023-05-07T02:25:27.139Z,23.2
2023-05-07T02:31:18.802Z,23.2
2023-05-07T02:37:11.029Z,23.2
2023-05-07T02:43:02.480Z,23.2
2023-05-07T02:48:54.756Z,23.2
2023-05-07T02:54:49.148Z,23.2
2023-05-07T03:00:42.550Z,23.2
2023-05-07T03:06:35.317Z,23.1
2023-05-07T03:12:27.225Z,23.1
2023-05-07T03:18:19.390Z,23.1
2023-05-07T03:24:14.178Z,23.1
2023-05-07T03:30:06.220Z,23.1
2023-05-07T03:35:58.162Z,23.1
2023-05-07T03:41:52.011Z,23.1
2023-05-07T03:47:43.681Z,23.1
2023-05-07T03:53:35.809Z,23.1
2023-05-07T03:59:28.458Z,23.1
2023-05-07T04:05:21.934Z,23.1
2023-05-07T04:11:14.111Z,23.1
2023-05-07T04:17:06.793Z,23.1
2023-05-07T04:22:58.827Z,23.1
2023-05-07T04:28:51.075Z,23.1
2023-05-07T04:34:43.305Z,23.1
2023-05-07T04:40:35.341Z,23.1
2023-05-07T04:46:28.083Z,23.1
2023-05-07T04:52:20.421Z,23.1
2023-05-07T04:58:12.601Z,23.1
2023-05-07T05:04:06.196Z,23.1
2023-05-07T05:09:58.352Z,23.1
2023-05-07T05:15:50.726Z,23.1
2023-05-07T05:21:42.871Z,23.2
2023-05-07T05:27:34.270Z,23.2
2023-05-07T05:33:28.164Z,23.1
2023-05-07T05:39:20.071Z,23
2023-05-07T05:45:12.201Z,23
2023-05-07T05:50:51.464Z,26.7
2023-05-07T05:56:43.894Z,28.7
2023-05-07T06:02:36.482Z,27.3
2023-05-07T06:08:28.532Z,26.6
2023-05-07T06:14:20.600Z,31.9
2023-05-07T06:20:12.920Z,31.9
2023-05-07T06:26:06.779Z,32.4
2023-05-07T06:31:57.389Z,32.7
2023-05-07T06:37:51.241Z,33.1
2023-05-07T06:43:42.823Z,33.8
2023-05-07T06:49:35.582Z,34.6
2023-05-07T06:55:13.750Z,35.3
2023-05-07T07:01:05.909Z,35.9
2023-05-07T07:06:58.779Z,36.7
2023-05-07T07:12:51.105Z,37.4
2023-05-07T07:18:44.453Z,38.1
2023-05-07T07:24:37.685Z,38.8
2023-05-07T07:30:31.688Z,39.4
2023-05-07T07:36:32.054Z,39.9
2023-05-07T07:42:28.788Z,40.4
2023-05-07T07:48:22.806Z,40.9
2023-05-07T07:54:33.344Z,41.5
2023-05-07T08:00:31.062Z,42.1
2023-05-07T08:06:15.182Z,42.3
2023-05-07T08:12:09.464Z,42.8
2023-05-07T08:18:03.976Z,43.4
2023-05-07T08:23:58.520Z,43.8
2023-05-07T08:29:53.225Z,44.4
2023-05-07T08:35:49.324Z,44.9
2023-05-07T08:41:45.538Z,45.4
2023-05-07T08:47:40.404Z,45.9
2023-05-07T08:53:34.438Z,46.5
2023-05-07T08:59:29.565Z,47
2023-05-07T09:05:24.929Z,44.9
2023-05-07T09:11:06.294Z,45.8
2023-05-07T09:16:45.650Z,46.9
2023-05-07T09:22:41.989Z,47.7
2023-05-07T09:28:39.758Z,48.4
2023-05-07T09:34:35.641Z,49.2
2023-05-07T09:40:33.788Z,49.8
2023-05-07T09:46:27.155Z,50.4
2023-05-07T09:52:21.088Z,50.5
2023-05-07T09:58:18.088Z,47.8
2023-05-07T10:04:14.904Z,48.7
2023-05-07T10:10:08.484Z,50.1
2023-05-07T10:16:04.148Z,51.1
2023-05-07T10:22:00.397Z,51.8
2023-05-07T10:27:57.171Z,52.6
2023-05-07T10:33:52.892Z,53.2
2023-05-07T10:39:48.057Z,53.8
2023-05-07T10:45:27.322Z,53.9
2023-05-07T10:51:40.779Z,54.4
2023-05-07T10:57:19.308Z,54.9
2023-05-07T11:03:31.059Z,55.3
2023-05-07T11:09:26.162Z,55.8
2023-05-07T11:15:19.971Z,56.1
2023-05-07T11:21:17.586Z,56.4
2023-05-07T11:27:15.501Z,56.8
2023-05-07T11:33:09.454Z,56.9
2023-05-07T11:38:48.719Z,57.3
2023-05-07T11:44:47.806Z,57.5
2023-05-07T11:50:42.582Z,57.8
2023-05-07T11:56:38.643Z,58.1
2023-05-07T12:02:32.831Z,58.3
2023-05-07T12:08:28.273Z,58.5
2023-05-07T12:14:11.622Z,58.8
2023-05-07T12:19:50.070Z,58.9
2023-05-07T12:25:28.695Z,59.1
2023-05-07T12:30:52.454Z,59.3
2023-05-07T12:36:46.556Z,59.3
2023-05-07T12:42:40.330Z,59.4
2023-05-07T12:48:21.858Z,59.5
2023-05-07T12:53:59.740Z,59.6
2023-05-07T12:59:37.242Z,59.6
2023-05-07T13:05:17.914Z,59.6
2023-05-07T13:10:56.427Z,59.5
2023-05-07T13:16:38.858Z,59.4
2023-05-07T13:22:33.713Z,59.3
2023-05-07T13:28:39.740Z,58.4
2023-05-07T13:34:34.166Z,58.2
2023-05-07T13:40:28.895Z,58.2
2023-05-07T13:46:21.260Z,58.1
2023-05-07T13:52:12.605Z,57.8
2023-05-07T13:57:50.520Z,57.6
2023-05-07T14:03:44.098Z,57.3
2023-05-07T14:09:36.929Z,57
2023-05-07T14:15:31.952Z,56.7
2023-05-07T14:21:27.163Z,56.3
2023-05-07T14:27:35.993Z,55.9
2023-05-07T14:33:28.659Z,55.6
2023-05-07T14:39:20.505Z,55.1
2023-05-07T14:45:13.528Z,54.5
2023-05-07T14:51:05.234Z,54
2023-05-07T14:56:57.579Z,53.4
2023-05-07T15:02:54.984Z,52.8
2023-05-07T15:08:47.740Z,52.2
2023-05-07T15:14:39.708Z,48.9
2023-05-07T15:20:35.124Z,46.5
2023-05-07T15:26:27.068Z,45
2023-05-07T15:32:20.829Z,44
2023-05-07T15:38:13.030Z,43.2
2023-05-07T15:44:04.504Z,42.5
2023-05-07T15:49:56.842Z,42
2023-05-07T15:55:49.694Z,41.5
2023-05-07T16:01:42.667Z,41.1
2023-05-07T16:07:35.949Z,40.2
2023-05-07T16:13:28.855Z,36.6
2023-05-07T16:19:23.295Z,35
2023-05-07T16:25:15.458Z,33.9
2023-05-07T16:31:06.857Z,30
2023-05-07T16:37:00.597Z,35.3
2023-05-07T16:42:53.518Z,27.9
2023-05-07T16:48:31.633Z,28.8
2023-05-07T16:54:08.954Z,27.5
2023-05-07T17:00:00.752Z,28.8
2023-05-07T17:06:09.887Z,27
2023-05-07T17:12:03.643Z,26.3
2023-05-07T17:17:55.657Z,25.8
2023-05-07T17:23:47.250Z,25.4
2023-05-07T17:29:38.822Z,25.1
2023-05-07T17:35:48.138Z,24.9
2023-05-07T17:41:23.980Z,24.7
2023-05-07T17:47:15.855Z,24.6
2023-05-07T17:53:16.775Z,24.4
2023-05-07T17:59:05.426Z,24.3
2023-05-07T18:04:58.190Z,24.2
2023-05-07T18:10:34.435Z,24.1
2023-05-07T18:16:26.158Z,24
2023-05-07T18:22:20.088Z,24
2023-05-07T18:28:11.756Z,23.9
2023-05-07T18:33:51.633Z,23.8
2023-05-07T18:39:43.738Z,23.8
2023-05-07T18:45:35.368Z,23.8
2023-05-07T18:51:28.207Z,23.7
2023-05-07T18:57:04.292Z,23.6
2023-05-07T19:02:55.143Z,23.4
2023-05-07T19:08:47.695Z,23.3
2023-05-07T19:14:53.944Z,23.2
2023-05-07T19:20:46.660Z,23.1
2023-05-07T19:26:39.040Z,23.1
2023-05-07T19:32:51.898Z,23
2023-05-07T19:38:29.127Z,22.9
2023-05-07T19:44:22.660Z,22.8
2023-05-07T19:50:18.353Z,22.7
2023-05-07T19:56:12.266Z,22.6
2023-05-07T20:02:05.933Z,22.6
2023-05-07T20:07:44.309Z,22.5
2023-05-07T20:13:21.625Z,22.5
2023-05-07T20:19:16.332Z,22.4
2023-05-07T20:24:54.575Z,22.4
2023-05-07T20:30:46.366Z,22.4
2023-05-07T20:36:38.619Z,22.4
2023-05-07T20:42:30.835Z,22.4
2023-05-07T20:48:25.857Z,22.4
2023-05-07T20:54:20.657Z,22.4
2023-05-07T21:00:12.655Z,22.4
2023-05-07T21:06:05.380Z,22.4
2023-05-07T21:11:57.220Z,22.4
2023-05-07T21:17:49.069Z,22.4
2023-05-07T21:23:41.201Z,22.4
2023-05-07T21:29:33.041Z,22.4
2023-05-07T21:35:10.381Z,22.4
2023-05-07T21:41:02.594Z,22.4
2023-05-07T21:46:54.822Z,22.4
2023-05-07T21:52:46.555Z,22.4
2023-05-07T21:58:53.381Z,22.4
2023-05-07T22:04:46.722Z,22.4
2023-05-07T22:10:37.891Z,22.4
2023-05-07T22:16:42.989Z,22.4
2023-05-07T22:22:34.558Z,22.4
2023-05-07T22:28:27.529Z,22.4
2023-05-07T22:34:06.923Z,22.4
2023-05-07T22:39:58.896Z,22.4
2023-05-07T22:45:51.189Z,22.4
2023-05-07T22:51:43.982Z,22.4
2023-05-07T22:57:35.595Z,22.4
2023-05-07T23:03:27.520Z,22.4
2023-05-07T23:09:19.020Z,22.4
2023-05-07T23:15:13.679Z,22.4
2023-05-07T23:21:05.926Z,22.4
2023-05-07T23:26:57.615Z,22.4
2023-05-07T23:32:50.030Z,22.4
2023-05-07T23:38:41.451Z,22.4
2023-05-07T23:44:32.200Z,22.4
2023-05-07T23:50:23.473Z,22.4
2023-05-07T23:56:14.313Z,22.4
